Time;durP1;ratioP1;P1;durP2;ratioP2;P2;SDS_P1;SDS_P2;PMS_P1;PMS_P2;Temp;Humidity;BMP_temperature;BMP_pressure;BME280_temperature;BME280_humidity;BME280_pressure;Samples;Min_cycle;Max_cycle;Signal;HPM_P1;HPM_P2
2023/10/09 00:02:58;;;;;;;12.07;4.43;;;;;;;;;;6098701;23;20150;-93
2023/10/09 00:06:04;;;;;;;8.00;4.18;;;;;;;;;;6097214;23;20215;-93
2023/10/09 00:09:29;;;;;;;9.23;4.10;;;;;;;;;;6097344;23;20187;-93
2023/10/09 00:12:34;;;;;;;8.73;3.65;;;;;;;;;;6097217;23;20198;-92
2023/10/09 00:15:40;;;;;;;7.10;3.90;;;;;;;;;;6097547;23;20149;-93
2023/10/09 00:18:53;;;;;;;9.05;3.90;;;;;;;;;;6098014;23;20170;-95
2023/10/09 00:22:04;;;;;;;8.85;3.85;;;;;;;;;;6098799;23;20170;-94
2023/10/09 00:25:21;;;;;;;10.75;4.40;;;;;;;;;;6097579;23;20253;-91
2023/10/09 00:28:27;;;;;;;9.95;3.75;;;;;;;;;;6096447;23;20158;-93
2023/10/09 00:31:33;;;;;;;6.82;4.00;;;;;;;;;;6096732;23;20530;-94
2023/10/09 00:34:41;;;;;;;7.45;4.00;;;;;;;;;;6096629;23;20170;-93
2023/10/09 00:37:46;;;;;;;8.52;3.75;;;;;;;;;;6095055;23;20166;-93
2023/10/09 00:41:04;;;;;;;8.73;3.42;;;;;;;;;;6094857;23;20194;-91
2023/10/09 00:44:10;;;;;;;7.05;4.00;;;;;;;;;;6097954;23;20257;-92
2023/10/09 00:47:26;;;;;;;8.15;3.47;;;;;;;;;;6098151;23;20170;-92
2023/10/09 00:50:35;;;;;;;8.05;3.60;;;;;;;;;;6097667;23;20195;-93
2023/10/09 00:53:40;;;;;;;8.43;3.83;;;;;;;;;;6096058;23;20644;-92
2023/10/09 00:56:57;;;;;;;10.75;4.00;;;;;;;;;;6095738;23;20157;-92
2023/10/09 01:00:12;;;;;;;9.25;4.20;;;;;;;;;;6096031;23;20173;-93
2023/10/09 01:03:22;;;;;;;7.82;3.53;;;;;;;;;;6096352;23;20178;-93
2023/10/09 01:06:33;;;;;;;8.80;4.20;;;;;;;;;;6095674;23;20468;-93
2023/10/09 01:09:42;;;;;;;9.88;4.38;;;;;;;;;;6095779;23;20186;-92
2023/10/09 01:12:54;;;;;;;9.98;4.53;;;;;;;;;;6097938;23;20313;-94
2023/10/09 01:16:01;;;;;;;7.50;4.20;;;;;;;;;;6095612;23;20174;-93
2023/10/09 01:19:13;;;;;;;9.70;4.20;;;;;;;;;;6098369;23;20180;-93
2023/10/09 01:22:21;;;;;;;8.00;3.85;;;;;;;;;;6096350;23;20163;-94
2023/10/09 01:25:41;;;;;;;9.60;4.47;;;;;;;;;;6097361;23;20174;-92
2023/10/09 01:28:49;;;;;;;12.45;4.72;;;;;;;;;;6096358;23;20237;-93
2023/10/09 01:31:55;;;;;;;10.80;4.40;;;;;;;;;;6097260;23;20267;-93
2023/10/09 01:35:01;;;;;;;12.00;4.40;;;;;;;;;;6097079;23;20149;-94
2023/10/09 01:38:13;;;;;;;9.57;4.72;;;;;;;;;;6096128;23;20218;-91
2023/10/09 01:41:20;;;;;;;11.43;4.65;;;;;;;;;;6096002;23;20326;-94
2023/10/09 01:44:43;;;;;;;10.88;5.13;;;;;;;;;;6094824;23;20276;-92
2023/10/09 01:47:51;;;;;;;11.50;4.75;;;;;;;;;;6096298;23;20190;-93
2023/10/09 01:50:58;;;;;;;13.15;5.03;;;;;;;;;;6096541;23;20250;-94
2023/10/09 01:54:03;;;;;;;12.20;5.00;;;;;;;;;;6095393;23;20182;-91
2023/10/09 01:57:12;;;;;;;9.85;4.93;;;;;;;;;;6095352;23;20210;-93
2023/10/09 02:00:24;;;;;;;10.10;5.45;;;;;;;;;;6095039;23;20157;-92
2023/10/09 02:03:30;;;;;;;10.52;5.35;;;;;;;;;;6096908;23;20178;-95
2023/10/09 02:06:37;;;;;;;12.02;5.63;;;;;;;;;;6095461;23;20162;-93
2023/10/09 02:09:46;;;;;;;12.10;5.70;;;;;;;;;;6095462;23;20154;-92
2023/10/09 02:12:57;;;;;;;10.13;5.57;;;;;;;;;;6096347;23;20196;-94
2023/10/09 02:16:14;;;;;;;10.32;5.30;;;;;;;;;;6096935;23;20625;-94
2023/10/09 02:19:31;;;;;;;10.35;5.00;;;;;;;;;;6097298;23;20199;-94
2023/10/09 02:22:37;;;;;;;11.25;5.75;;;;;;;;;;6096470;23;20231;-93
2023/10/09 02:25:43;;;;;;;16.25;5.78;;;;;;;;;;6096902;23;20261;-94
2023/10/09 02:28:58;;;;;;;11.20;5.80;;;;;;;;;;6095240;23;20194;-95
2023/10/09 02:32:13;;;;;;;9.60;4.97;;;;;;;;;;6096933;23;20193;-95
2023/10/09 02:35:28;;;;;;;12.07;5.47;;;;;;;;;;6097079;23;20158;-94
2023/10/09 02:38:35;;;;;;;10.90;5.45;;;;;;;;;;6114363;23;20166;-92
2023/10/09 02:41:49;;;;;;;10.15;5.30;;;;;;;;;;6095725;23;20702;-94
2023/10/09 02:44:58;;;;;;;13.48;5.15;;;;;;;;;;6095006;23;20235;-94
2023/10/09 02:48:10;;;;;;;15.15;5.95;;;;;;;;;;6095077;23;20189;-93
2023/10/09 02:51:30;;;;;;;19.63;5.53;;;;;;;;;;6093835;23;20169;-92
2023/10/09 02:54:36;;;;;;;14.07;5.00;;;;;;;;;;6095000;23;20241;-94
2023/10/09 02:57:42;;;;;;;15.90;5.85;;;;;;;;;;6092582;23;20173;-93
2023/10/09 03:00:51;;;;;;;14.98;5.65;;;;;;;;;;6091870;23;20286;-94
2023/10/09 03:03:59;;;;;;;9.57;5.18;;;;;;;;;;6091968;23;20236;-94
2023/10/09 03:07:07;;;;;;;12.30;5.93;;;;;;;;;;6094135;23;20501;-92
2023/10/09 03:10:12;;;;;;;9.05;5.10;;;;;;;;;;6094890;23;20216;-94
2023/10/09 03:13:19;;;;;;;10.73;5.40;;;;;;;;;;6093611;23;20285;-94
2023/10/09 03:16:27;;;;;;;11.30;5.53;;;;;;;;;;6093519;23;20525;-94
2023/10/09 03:19:37;;;;;;;12.88;5.68;;;;;;;;;;6094273;23;20157;-93
2023/10/09 03:22:42;;;;;;;11.30;5.68;;;;;;;;;;6093129;23;20257;-93
2023/10/09 03:25:51;;;;;;;12.55;5.55;;;;;;;;;;6095488;23;20214;-93
2023/10/09 03:28:56;;;;;;;11.57;6.00;;;;;;;;;;6095441;23;20193;-93
2023/10/09 03:32:06;;;;;;;12.27;5.72;;;;;;;;;;6095842;23;20645;-93
2023/10/09 03:35:17;;;;;;;9.60;5.45;;;;;;;;;;6097674;23;20169;-94
2023/10/09 03:38:36;;;;;;;12.52;6.03;;;;;;;;;;6114489;23;20170;-91
2023/10/09 03:41:42;;;;;;;14.20;6.28;;;;;;;;;;6096804;23;20196;-94
2023/10/09 03:44:52;;;;;;;10.70;5.68;;;;;;;;;;6096090;23;20174;-94
2023/10/09 03:48:08;;;;;;;12.65;6.03;;;;;;;;;;6095503;23;20162;-94
2023/10/09 03:51:21;;;;;;;12.32;5.63;;;;;;;;;;6096052;23;20253;-92
2023/10/09 03:54:29;;;;;;;11.73;6.10;;;;;;;;;;6096456;23;20238;-95
2023/10/09 03:57:35;;;;;;;14.00;6.00;;;;;;;;;;6095605;23;20182;-93
2023/10/09 04:00:44;;;;;;;10.25;5.45;;;;;;;;;;6095899;23;20161;-93
2023/10/09 04:03:54;;;;;;;10.13;5.80;;;;;;;;;;6095693;23;20177;-94
2023/10/09 04:07:00;;;;;;;10.40;5.65;;;;;;;;;;6097943;23;20178;-91
2023/10/09 04:10:32;;;;;;;19.02;6.05;;;;;;;;;;6097899;23;20173;-94
2023/10/09 04:13:35;;;;;;;16.45;6.60;;;;;;;;;;6095723;23;20264;-94
2023/10/09 04:16:51;;;;;;;10.20;5.82;;;;;;;;;;6097764;23;20174;-94
2023/10/09 04:23:59;;;;;;;11.48;5.80;;;;;;;;;;6115483;23;20169;-94
2023/10/09 04:26:47;;;;;;;17.60;6.80;;;;;;;;;;6096019;23;20166;-93
2023/10/09 04:29:54;;;;;;;10.60;5.93;;;;;;;;;;6097692;23;20158;-95
2023/10/09 04:36:28;;;;;;;13.85;6.70;;;;;;;;;;6096062;23;20492;-94
2023/10/09 04:39:37;;;;;;;12.93;6.72;;;;;;;;;;6096169;23;20210;-94
2023/10/09 04:42:57;;;;;;;17.30;6.72;;;;;;;;;;6098585;23;20195;-92
2023/10/09 04:46:10;;;;;;;11.30;6.40;;;;;;;;;;6094958;23;20178;-94
2023/10/09 04:49:27;;;;;;;13.45;6.43;;;;;;;;;;6094954;23;20166;-94
2023/10/09 04:55:57;;;;;;;9.90;5.90;;;;;;;;;;6096358;23;20182;-93
2023/10/09 04:59:08;;;;;;;13.93;6.32;;;;;;;;;;6096866;23;20218;-93
2023/10/09 05:02:19;;;;;;;15.02;7.00;;;;;;;;;;6096084;23;20169;-94
2023/10/09 05:08:47;;;;;;;16.42;6.75;;;;;;;;;;6098089;23;20182;-94
2023/10/09 05:12:15;;;;;;;12.30;6.70;;;;;;;;;;6098467;23;20174;-90
2023/10/09 05:22:07;;;;;;;14.20;6.75;;;;;;;;;;6097705;23;20246;-91
2023/10/09 05:25:30;;;;;;;16.48;6.55;;;;;;;;;;6095314;23;20179;-90
2023/10/09 05:28:52;;;;;;;14.65;7.35;;;;;;;;;;6093008;23;20894;-92
2023/10/09 05:31:56;;;;;;;17.38;7.05;;;;;;;;;;6091863;23;20204;-91
2023/10/09 05:35:15;;;;;;;14.85;6.93;;;;;;;;;;6093188;23;20177;-90
2023/10/09 05:38:23;;;;;;;13.02;6.30;;;;;;;;;;6095046;23;20181;-91
2023/10/09 05:41:47;;;;;;;15.98;6.90;;;;;;;;;;6093628;23;20192;-92
2023/10/09 05:51:43;;;;;;;16.50;6.55;;;;;;;;;;6107360;23;20197;-89
2023/10/09 05:55:19;;;;;;;15.73;6.20;;;;;;;;;;6089592;23;20325;-87
2023/10/09 06:05:40;;;;;;;15.25;6.28;;;;;;;;;;6107331;23;20234;-92
2023/10/09 06:08:47;;;;;;;11.15;5.88;;;;;;;;;;6091438;23;20170;-89
2023/10/09 06:11:55;;;;;;;12.27;5.90;;;;;;;;;;6090793;23;20625;-89
2023/10/09 06:18:34;;;;;;;12.02;6.30;;;;;;;;;;6090853;23;20176;-90
2023/10/09 06:21:39;;;;;;;11.32;5.40;;;;;;;;;;6092360;23;20201;-92
2023/10/09 06:24:54;;;;;;;17.05;6.20;;;;;;;;;;6089361;23;20178;-93
2023/10/09 06:27:59;;;;;;;13.20;5.80;;;;;;;;;;6090071;23;20174;-92
2023/10/09 06:31:27;;;;;;;11.90;6.10;;;;;;;;;;6090619;23;20179;-90
2023/10/09 06:34:35;;;;;;;13.45;6.45;;;;;;;;;;6092063;23;20186;-88
2023/10/09 06:38:10;;;;;;;15.57;7.65;;;;;;;;;;6095139;23;20173;-92
2023/10/09 06:41:34;;;;;;;14.30;6.85;;;;;;;;;;6093061;23;20198;-92
2023/10/09 06:44:54;;;;;;;16.10;6.28;;;;;;;;;;6090865;23;20190;-89
2023/10/09 06:48:40;;;;;;;14.60;6.65;;;;;;;;;;6090969;23;20589;-90
2023/10/09 06:51:40;;;;;;;12.15;5.97;;;;;;;;;;6090416;23;20222;-91
2023/10/09 06:54:50;;;;;;;11.02;5.93;;;;;;;;;;6089985;23;20197;-90
2023/10/09 06:57:55;;;;;;;15.15;6.05;;;;;;;;;;6109612;23;20711;-91
2023/10/09 07:04:45;;;;;;;16.05;6.25;;;;;;;;;;6090641;23;20182;-90
2023/10/09 07:07:54;;;;;;;27.83;9.82;;;;;;;;;;6090821;23;20618;-92
2023/10/09 07:11:20;;;;;;;11.68;6.13;;;;;;;;;;6089237;23;20254;-89
2023/10/09 07:17:52;;;;;;;16.50;6.28;;;;;;;;;;6107377;23;20621;-91
2023/10/09 07:21:11;;;;;;;11.07;5.18;;;;;;;;;;6089023;23;20182;-90
2023/10/09 07:24:21;;;;;;;19.48;6.30;;;;;;;;;;6090977;23;20173;-91
2023/10/09 07:30:46;;;;;;;15.95;6.10;;;;;;;;;;6090151;23;20521;-91
2023/10/09 07:33:56;;;;;;;13.13;6.20;;;;;;;;;;6091527;23;20214;-90
2023/10/09 07:37:04;;;;;;;12.63;6.22;;;;;;;;;;6090478;23;20649;-89
2023/10/09 07:40:14;;;;;;;12.95;6.18;;;;;;;;;;6089024;23;20168;-91
2023/10/09 07:43:25;;;;;;;16.50;5.88;;;;;;;;;;6090953;23;20174;-92
2023/10/09 07:46:30;;;;;;;14.98;6.63;;;;;;;;;;6091601;23;20174;-90
2023/10/09 07:49:37;;;;;;;14.40;6.05;;;;;;;;;;6093481;23;20275;-90
2023/10/09 07:52:44;;;;;;;13.52;5.60;;;;;;;;;;6090826;23;20730;-88
2023/10/09 07:55:55;;;;;;;10.52;5.55;;;;;;;;;;6093016;23;20170;-93
2023/10/09 07:59:01;;;;;;;14.57;5.78;;;;;;;;;;6092532;23;20174;-91
2023/10/09 08:02:13;;;;;;;11.90;5.65;;;;;;;;;;6090925;23;20254;-89
2023/10/09 08:05:22;;;;;;;11.63;5.82;;;;;;;;;;6090846;23;20162;-91
2023/10/09 08:08:55;;;;;;;10.90;5.30;;;;;;;;;;6091366;23;20219;-91
2023/10/09 08:12:39;;;;;;;11.77;5.25;;;;;;;;;;6093958;23;20178;-90
2023/10/09 08:15:52;;;;;;;20.20;5.95;;;;;;;;;;6092624;23;20170;-93
2023/10/09 08:18:57;;;;;;;17.05;5.30;;;;;;;;;;6091301;23;20174;-91
2023/10/09 08:22:35;;;;;;;10.93;4.63;;;;;;;;;;6090495;23;20162;-92
2023/10/09 08:25:57;;;;;;;10.32;4.70;;;;;;;;;;6090657;23;20224;-91
2023/10/09 08:29:16;;;;;;;11.63;5.07;;;;;;;;;;6089330;23;20174;-92
2023/10/09 08:32:38;;;;;;;11.00;5.03;;;;;;;;;;6090468;23;20191;-92
2023/10/09 08:35:47;;;;;;;14.80;5.22;;;;;;;;;;6092339;23;20174;-92
2023/10/09 08:38:58;;;;;;;12.48;5.63;;;;;;;;;;6090558;23;20178;-93
2023/10/09 08:42:08;;;;;;;15.63;4.85;;;;;;;;;;6090386;23;20193;-92
2023/10/09 08:45:18;;;;;;;10.63;4.90;;;;;;;;;;6092775;23;20193;-91
2023/10/09 08:48:26;;;;;;;14.93;5.05;;;;;;;;;;6108604;23;20214;-91
2023/10/09 08:51:32;;;;;;;13.60;5.10;;;;;;;;;;6090683;23;20235;-92
2023/10/09 08:54:37;;;;;;;10.60;4.82;;;;;;;;;;6093180;23;20281;-91
2023/10/09 08:57:46;;;;;;;14.95;5.53;;;;;;;;;;6094711;23;20177;-93
2023/10/09 09:00:51;;;;;;;12.32;4.90;;;;;;;;;;6090048;23;20178;-94
2023/10/09 09:03:56;;;;;;;17.73;5.40;;;;;;;;;;6090966;23;20174;-91
2023/10/09 09:07:02;;;;;;;11.70;4.82;;;;;;;;;;6092525;23;20250;-95
2023/10/09 09:10:17;;;;;;;14.52;5.18;;;;;;;;;;6093435;23;20247;-92
2023/10/09 09:13:31;;;;;;;14.27;5.00;;;;;;;;;;6091446;23;20234;-95
2023/10/09 09:16:37;;;;;;;18.15;4.97;;;;;;;;;;6091208;23;20177;-90
2023/10/09 09:19:42;;;;;;;16.23;5.10;;;;;;;;;;6108449;23;20181;-92
2023/10/09 09:22:54;;;;;;;11.20;5.18;;;;;;;;;;6091214;23;20637;-91
2023/10/09 09:26:01;;;;;;;15.38;5.25;;;;;;;;;;6092083;23;20514;-90
2023/10/09 09:29:08;;;;;;;14.43;4.93;;;;;;;;;;6092902;23;20198;-93
2023/10/09 09:32:19;;;;;;;11.80;4.93;;;;;;;;;;6088722;23;20195;-91
2023/10/09 09:35:27;;;;;;;13.23;5.00;;;;;;;;;;6092235;23;20197;-93
2023/10/09 09:38:47;;;;;;;12.35;4.97;;;;;;;;;;6092323;23;20177;-89
2023/10/09 09:41:52;;;;;;;14.27;5.10;;;;;;;;;;6090990;23;20194;-94
2023/10/09 09:44:59;;;;;;;12.73;4.60;;;;;;;;;;6091108;23;20243;-92
2023/10/09 09:48:06;;;;;;;13.75;5.35;;;;;;;;;;6090204;23;20166;-91
2023/10/09 09:51:13;;;;;;;11.85;4.82;;;;;;;;;;6090767;23;20173;-91
2023/10/09 09:54:22;;;;;;;21.48;5.80;;;;;;;;;;6089592;23;20225;-92
2023/10/09 09:57:28;;;;;;;13.52;4.88;;;;;;;;;;6092364;23;20177;-93
2023/10/09 10:00:45;;;;;;;16.80;5.35;;;;;;;;;;6094188;23;20190;-89
2023/10/09 10:03:51;;;;;;;14.25;5.25;;;;;;;;;;6096095;23;20166;-89
2023/10/09 10:07:03;;;;;;;16.95;5.20;;;;;;;;;;6092724;23;20308;-91
2023/10/09 10:10:24;;;;;;;17.95;4.95;;;;;;;;;;6093391;23;20174;-91
2023/10/09 10:13:44;;;;;;;16.85;6.78;;;;;;;;;;6089502;23;20174;-90
2023/10/09 10:17:17;;;;;;;16.45;5.78;;;;;;;;;;6091713;23;20177;-90
2023/10/09 10:20:31;;;;;;;18.10;5.10;;;;;;;;;;6093323;23;20178;-90
2023/10/09 10:23:36;;;;;;;19.90;5.45;;;;;;;;;;6093542;23;20253;-91
2023/10/09 10:26:43;;;;;;;25.38;7.80;;;;;;;;;;6092685;23;20181;-92
2023/10/09 10:29:50;;;;;;;22.10;6.15;;;;;;;;;;6091517;23;20174;-90
2023/10/09 10:32:56;;;;;;;22.95;5.53;;;;;;;;;;6091026;23;20669;-91
2023/10/09 10:36:06;;;;;;;18.90;6.40;;;;;;;;;;6093028;23;20174;-93
2023/10/09 10:39:19;;;;;;;19.45;6.32;;;;;;;;;;6090528;23;20170;-92
2023/10/09 10:42:34;;;;;;;20.58;6.03;;;;;;;;;;6089597;23;20199;-90
2023/10/09 10:45:43;;;;;;;17.48;5.32;;;;;;;;;;6093695;23;20170;-88
2023/10/09 10:48:49;;;;;;;14.90;5.22;;;;;;;;;;6095411;23;20213;-91
2023/10/09 10:55:48;;;;;;;30.33;6.03;;;;;;;;;;6094749;23;20202;-91
2023/10/09 10:58:53;;;;;;;18.50;5.95;;;;;;;;;;6092455;23;20178;-90
2023/10/09 11:02:13;;;;;;;18.00;5.53;;;;;;;;;;6093512;23;20547;-93
2023/10/09 11:05:24;;;;;;;20.70;5.13;;;;;;;;;;6095370;23;20171;-90
2023/10/09 11:08:33;;;;;;;16.85;5.80;;;;;;;;;;6094225;23;20230;-91
2023/10/09 11:11:42;;;;;;;22.48;5.75;;;;;;;;;;6096657;23;20634;-91
2023/10/09 11:15:05;;;;;;;17.80;4.95;;;;;;;;;;6092171;23;20197;-90
2023/10/09 11:18:17;;;;;;;17.42;4.90;;;;;;;;;;6091756;23;20621;-91
2023/10/09 11:21:32;;;;;;;18.20;5.00;;;;;;;;;;6091188;23;20193;-93
2023/10/09 11:24:40;;;;;;;20.88;5.07;;;;;;;;;;6091737;23;20238;-91
2023/10/09 11:27:50;;;;;;;21.15;5.22;;;;;;;;;;6091737;23;20258;-90
2023/10/09 11:30:56;;;;;;;17.33;4.80;;;;;;;;;;6091105;23;20170;-92
2023/10/09 11:34:06;;;;;;;19.23;5.22;;;;;;;;;;6108072;23;20174;-93
2023/10/09 11:37:15;;;;;;;20.17;5.28;;;;;;;;;;6091367;23;20288;-91
2023/10/09 11:40:50;;;;;;;14.32;4.75;;;;;;;;;;6091291;23;20177;-89
2023/10/09 11:44:04;;;;;;;18.25;5.55;;;;;;;;;;6091353;23;20217;-93
2023/10/09 11:50:50;;;;;;;15.55;4.82;;;;;;;;;;6092153;23;20190;-90
2023/10/09 11:53:58;;;;;;;17.45;5.05;;;;;;;;;;6093557;23;20226;-91
2023/10/09 11:57:04;;;;;;;21.90;5.85;;;;;;;;;;6092448;23;20178;-93
2023/10/09 12:00:25;;;;;;;14.93;5.45;;;;;;;;;;6093273;23;20193;-91
2023/10/09 12:03:31;;;;;;;19.23;5.38;;;;;;;;;;6093665;23;20182;-92
2023/10/09 12:06:39;;;;;;;15.75;4.45;;;;;;;;;;6094833;23;20173;-90
2023/10/09 12:09:45;;;;;;;22.15;5.38;;;;;;;;;;6093296;23;20177;-93
2023/10/09 12:12:51;;;;;;;17.33;5.43;;;;;;;;;;6091365;23;20170;-92
2023/10/09 12:15:57;;;;;;;18.88;5.22;;;;;;;;;;6093570;23;20194;-91
2023/10/09 12:19:02;;;;;;;22.65;5.97;;;;;;;;;;6093053;23;20648;-92
2023/10/09 12:22:10;;;;;;;24.90;6.30;;;;;;;;;;6092423;23;20166;-91
2023/10/09 12:25:19;;;;;;;23.60;6.50;;;;;;;;;;6094558;23;20174;-92
2023/10/09 12:28:32;;;;;;;20.25;6.22;;;;;;;;;;6095909;23;20170;-90
2023/10/09 12:31:39;;;;;;;24.75;6.35;;;;;;;;;;6094580;23;20222;-93
2023/10/09 12:34:45;;;;;;;20.90;6.50;;;;;;;;;;6093257;23;20653;-91
2023/10/09 12:37:56;;;;;;;20.00;5.72;;;;;;;;;;6096660;23;20197;-92
2023/10/09 12:41:19;;;;;;;21.80;5.47;;;;;;;;;;6095308;23;20192;-91
2023/10/09 12:44:27;;;;;;;19.00;5.18;;;;;;;;;;6094091;23;20198;-93
2023/10/09 12:47:33;;;;;;;15.68;5.38;;;;;;;;;;6093764;23;20186;-91
2023/10/09 12:50:41;;;;;;;22.38;4.78;;;;;;;;;;6094822;23;20170;-89
2023/10/09 12:53:48;;;;;;;20.52;5.20;;;;;;;;;;6094195;23;20609;-91
2023/10/09 12:56:54;;;;;;;16.60;4.65;;;;;;;;;;6095334;23;20174;-91
2023/10/09 13:00:08;;;;;;;18.50;4.95;;;;;;;;;;6094805;23;20167;-92
2023/10/09 13:03:21;;;;;;;18.05;5.40;;;;;;;;;;6095082;23;20233;-91
2023/10/09 13:06:26;;;;;;;25.65;6.22;;;;;;;;;;6093402;23;20178;-93
2023/10/09 13:09:35;;;;;;;23.02;5.75;;;;;;;;;;6095682;23;20171;-92
2023/10/09 13:12:42;;;;;;;18.45;5.53;;;;;;;;;;6095740;23;20219;-94
2023/10/09 13:15:48;;;;;;;26.75;6.13;;;;;;;;;;6096830;23;20528;-92
2023/10/09 13:18:54;;;;;;;18.90;6.47;;;;;;;;;;6111442;23;20324;-92
2023/10/09 13:22:02;;;;;;;25.25;7.15;;;;;;;;;;6109797;23;20302;-91
2023/10/09 13:25:15;;;;;;;25.42;7.28;;;;;;;;;;6093249;23;20174;-93
2023/10/09 13:28:21;;;;;;;24.08;6.68;;;;;;;;;;6094787;23;20218;-91
2023/10/09 13:31:31;;;;;;;21.63;6.50;;;;;;;;;;6097569;23;20210;-94
2023/10/09 13:34:42;;;;;;;20.08;6.80;;;;;;;;;;6094412;23;20181;-91
2023/10/09 13:37:53;;;;;;;25.50;6.30;;;;;;;;;;6095541;23;20173;-94
2023/10/09 13:41:01;;;;;;;22.30;6.63;;;;;;;;;;6092685;23;20188;-92
2023/10/09 13:44:06;;;;;;;25.40;6.03;;;;;;;;;;6093755;23;20178;-92
2023/10/09 13:47:20;;;;;;;24.35;6.50;;;;;;;;;;6096294;23;20724;-93
2023/10/09 13:50:31;;;;;;;22.30;6.47;;;;;;;;;;6094566;23;20178;-91
2023/10/09 13:53:44;;;;;;;21.92;6.53;;;;;;;;;;6096589;23;20165;-90
2023/10/09 13:56:52;;;;;;;29.35;7.50;;;;;;;;;;6094566;23;20265;-90
2023/10/09 14:00:00;;;;;;;20.23;6.45;;;;;;;;;;6094976;23;20181;-91
2023/10/09 14:03:12;;;;;;;23.35;7.15;;;;;;;;;;6095344;23;20177;-92
2023/10/09 14:06:22;;;;;;;25.77;5.85;;;;;;;;;;6094755;23;20173;-91
2023/10/09 14:09:31;;;;;;;19.45;6.03;;;;;;;;;;6095929;23;20244;-92
2023/10/09 14:12:39;;;;;;;20.33;6.07;;;;;;;;;;6093312;23;20178;-93
2023/10/09 14:15:45;;;;;;;22.98;6.55;;;;;;;;;;6093497;23;20226;-90
2023/10/09 14:18:56;;;;;;;21.90;6.00;;;;;;;;;;6092147;23;20226;-93
2023/10/09 14:22:05;;;;;;;22.10;6.93;;;;;;;;;;6110336;23;20174;-92
2023/10/09 14:25:15;;;;;;;17.33;6.75;;;;;;;;;;6096399;23;20174;-92
2023/10/09 14:28:20;;;;;;;22.02;6.93;;;;;;;;;;6095983;23;20177;-93
2023/10/09 14:31:28;;;;;;;21.52;6.18;;;;;;;;;;6095389;23;20218;-91
2023/10/09 14:34:39;;;;;;;22.10;5.63;;;;;;;;;;6095091;23;20185;-92
2023/10/09 14:37:45;;;;;;;18.67;7.30;;;;;;;;;;6097470;23;20226;-90
2023/10/09 14:40:57;;;;;;;27.48;6.70;;;;;;;;;;6112703;23;20210;-91
2023/10/09 14:50:54;;;;;;;19.10;6.40;;;;;;;;;;6095322;23;20179;-92
2023/10/09 14:54:02;;;;;;;24.55;6.80;;;;;;;;;;6097039;23;20174;-91
2023/10/09 14:57:11;;;;;;;14.80;6.43;;;;;;;;;;6098194;23;20174;-93
2023/10/09 15:00:22;;;;;;;19.30;6.38;;;;;;;;;;6095813;23;20178;-92
2023/10/09 15:03:37;;;;;;;21.05;6.18;;;;;;;;;;6096921;23;20625;-90
2023/10/09 15:06:44;;;;;;;22.02;5.78;;;;;;;;;;6096312;23;20170;-92
2023/10/09 15:09:51;;;;;;;23.95;6.60;;;;;;;;;;6115073;23;20608;-92
2023/10/09 15:13:00;;;;;;;22.92;6.60;;;;;;;;;;6096485;23;20179;-92
2023/10/09 15:16:05;;;;;;;18.50;6.32;;;;;;;;;;6094556;23;20177;-91
2023/10/09 15:19:11;;;;;;;19.30;6.63;;;;;;;;;;6113921;23;20208;-92
2023/10/09 15:22:35;;;;;;;22.83;6.53;;;;;;;;;;6097666;23;20173;-93
2023/10/09 15:25:42;;;;;;;25.45;7.50;;;;;;;;;;6096484;23;20154;-89
2023/10/09 15:28:49;;;;;;;25.55;7.55;;;;;;;;;;6096921;23;20169;-91
2023/10/09 15:32:00;;;;;;;18.42;6.47;;;;;;;;;;6095107;23;20184;-92
2023/10/09 15:35:06;;;;;;;18.75;6.38;;;;;;;;;;6095523;23;20500;-90
2023/10/09 15:38:17;;;;;;;21.48;7.75;;;;;;;;;;6099393;23;20173;-93
2023/10/09 15:41:25;;;;;;;25.02;7.55;;;;;;;;;;6097618;23;20281;-91
2023/10/09 15:44:33;;;;;;;20.10;6.80;;;;;;;;;;6096498;23;20174;-92
2023/10/09 15:47:39;;;;;;;22.08;6.90;;;;;;;;;;6095856;23;20173;-91
2023/10/09 15:50:49;;;;;;;21.60;6.88;;;;;;;;;;6097544;23;20194;-89
2023/10/09 15:53:57;;;;;;;25.95;7.60;;;;;;;;;;6097851;23;20246;-90
2023/10/09 15:57:03;;;;;;;21.23;8.43;;;;;;;;;;6095607;23;20193;-89
2023/10/09 16:03:28;;;;;;;24.70;9.02;;;;;;;;;;6097626;23;20185;-90
2023/10/09 16:06:34;;;;;;;23.92;7.30;;;;;;;;;;6112264;23;20207;-93
2023/10/09 16:09:41;;;;;;;23.58;9.35;;;;;;;;;;6095391;23;20248;-91
2023/10/09 16:12:47;;;;;;;32.88;11.52;;;;;;;;;;6096462;23;20583;-92
2023/10/09 16:15:52;;;;;;;23.42;8.65;;;;;;;;;;6096850;23;20285;-90
2023/10/09 16:19:00;;;;;;;27.35;9.05;;;;;;;;;;6097163;23;20210;-90
2023/10/09 16:22:10;;;;;;;26.35;9.70;;;;;;;;;;6096088;23;20562;-90
2023/10/09 16:25:23;;;;;;;27.30;10.10;;;;;;;;;;6098669;23;20150;-91
2023/10/09 16:28:31;;;;;;;26.15;9.15;;;;;;;;;;6099002;23;20215;-92
2023/10/09 16:31:38;;;;;;;43.45;16.55;;;;;;;;;;6102605;23;20177;-91
2023/10/09 16:34:45;;;;;;;20.85;7.82;;;;;;;;;;6100781;23;20178;-89
2023/10/09 16:37:52;;;;;;;27.48;8.52;;;;;;;;;;6099147;23;20178;-88
2023/10/09 16:41:07;;;;;;;31.98;8.48;;;;;;;;;;6117243;23;20221;-92
2023/10/09 16:44:17;;;;;;;25.73;9.40;;;;;;;;;;6097940;23;20190;-94
2023/10/09 16:47:24;;;;;;;28.67;8.73;;;;;;;;;;6097767;23;20244;-88
2023/10/09 16:50:30;;;;;;;19.23;8.90;;;;;;;;;;6096975;23;20195;-92
2023/10/09 16:53:38;;;;;;;31.90;10.80;;;;;;;;;;6096112;23;20177;-90
2023/10/09 17:00:12;;;;;;;44.30;14.05;;;;;;;;;;6094436;23;20174;-91
2023/10/09 17:03:17;;;;;;;39.38;15.93;;;;;;;;;;6095165;23;20177;-88
2023/10/09 17:06:28;;;;;;;26.55;8.93;;;;;;;;;;6115006;23;20173;-91
2023/10/09 17:09:41;;;;;;;30.60;9.98;;;;;;;;;;6096833;23;20175;-88
2023/10/09 17:12:52;;;;;;;28.40;9.48;;;;;;;;;;6097077;23;20174;-92
2023/10/09 17:15:57;;;;;;;23.45;9.30;;;;;;;;;;6098398;23;20251;-92
2023/10/09 17:19:05;;;;;;;31.98;11.40;;;;;;;;;;6097369;23;20214;-89
2023/10/09 17:22:18;;;;;;;24.40;9.45;;;;;;;;;;6099842;23;20205;-90
2023/10/09 17:28:47;;;;;;;24.30;9.02;;;;;;;;;;6099542;23;20219;-90
2023/10/09 17:31:53;;;;;;;24.58;9.82;;;;;;;;;;6094421;23;20294;-91
2023/10/09 17:35:02;;;;;;;36.92;14.85;;;;;;;;;;6095140;23;20178;-91
2023/10/09 17:38:09;;;;;;;28.85;11.43;;;;;;;;;;6098678;23;20170;-90
2023/10/09 17:41:15;;;;;;;30.23;12.30;;;;;;;;;;6116647;23;20252;-91
2023/10/09 17:44:24;;;;;;;26.38;13.30;;;;;;;;;;6098344;23;20203;-91
2023/10/09 17:47:30;;;;;;;32.25;10.82;;;;;;;;;;6097563;23;20173;-90
2023/10/09 17:50:36;;;;;;;31.23;10.68;;;;;;;;;;6098837;23;20235;-95
2023/10/09 17:53:42;;;;;;;26.48;9.40;;;;;;;;;;6099001;23;20275;-93
2023/10/09 17:56:49;;;;;;;26.65;9.07;;;;;;;;;;6099299;23;20242;-91
2023/10/09 17:59:56;;;;;;;20.83;9.32;;;;;;;;;;6098176;23;20198;-91
2023/10/09 18:06:23;;;;;;;29.48;8.90;;;;;;;;;;6098238;23;20194;-91
2023/10/09 18:09:30;;;;;;;25.02;9.85;;;;;;;;;;6099387;23;20158;-91
2023/10/09 18:12:36;;;;;;;22.58;8.85;;;;;;;;;;6097463;23;20211;-93
2023/10/09 18:15:43;;;;;;;28.85;10.40;;;;;;;;;;6095772;23;20174;-93
2023/10/09 18:18:48;;;;;;;31.50;13.18;;;;;;;;;;6094288;23;20157;-91
2023/10/09 18:21:53;;;;;;;30.40;10.80;;;;;;;;;;6095979;23;20194;-94
2023/10/09 18:25:00;;;;;;;29.77;9.68;;;;;;;;;;6093792;23;20248;-92
2023/10/09 18:28:05;;;;;;;25.05;9.77;;;;;;;;;;6094614;23;20218;-91
2023/10/09 18:31:17;;;;;;;26.88;10.98;;;;;;;;;;6095200;23;20222;-92
2023/10/09 18:34:26;;;;;;;25.58;9.63;;;;;;;;;;6095191;23;20233;-89
2023/10/09 18:37:32;;;;;;;26.52;8.95;;;;;;;;;;6095503;23;20192;-91
2023/10/09 18:40:46;;;;;;;26.10;10.90;;;;;;;;;;6097912;23;20200;-94
2023/10/09 18:43:53;;;;;;;21.50;9.15;;;;;;;;;;6095322;23;20172;-92
2023/10/09 18:47:14;;;;;;;25.40;8.80;;;;;;;;;;6097850;23;20170;-91
2023/10/09 18:50:20;;;;;;;28.02;9.73;;;;;;;;;;6093883;23;20238;-89
2023/10/09 18:53:26;;;;;;;21.77;9.27;;;;;;;;;;6094588;23;20170;-91
2023/10/09 18:56:32;;;;;;;24.73;9.43;;;;;;;;;;6093325;23;20251;-91
2023/10/09 18:59:37;;;;;;;19.95;9.88;;;;;;;;;;6095456;23;20231;-93
2023/10/09 19:02:44;;;;;;;28.35;10.20;;;;;;;;;;6092200;23;20174;-89
2023/10/09 19:05:51;;;;;;;28.63;9.80;;;;;;;;;;6094776;23;20255;-88
2023/10/09 19:08:58;;;;;;;23.55;9.27;;;;;;;;;;6095525;23;20223;-94
2023/10/09 19:12:09;;;;;;;21.30;9.50;;;;;;;;;;6096869;23;20173;-95
2023/10/09 19:15:14;;;;;;;21.85;9.98;;;;;;;;;;6095182;23;20158;-93
2023/10/09 19:18:24;;;;;;;27.35;10.25;;;;;;;;;;6095397;23;20175;-94
2023/10/09 19:21:30;;;;;;;24.60;9.93;;;;;;;;;;6096803;23;20245;-92
2023/10/09 19:24:37;;;;;;;23.83;9.18;;;;;;;;;;6096297;23;20214;-91
2023/10/09 19:27:42;;;;;;;25.17;9.38;;;;;;;;;;6097713;23;20629;-94
2023/10/09 19:30:47;;;;;;;27.48;9.23;;;;;;;;;;6096037;23;20172;-92
2023/10/09 19:33:54;;;;;;;34.08;10.38;;;;;;;;;;6095779;23;20165;-91
2023/10/09 19:37:00;;;;;;;19.15;8.90;;;;;;;;;;6096156;23;20245;-92
2023/10/09 19:40:09;;;;;;;23.85;9.05;;;;;;;;;;6112893;23;20182;-92
2023/10/09 19:43:15;;;;;;;25.80;9.32;;;;;;;;;;6095815;23;20174;-93
2023/10/09 19:46:27;;;;;;;32.22;9.75;;;;;;;;;;6096066;23;20167;-91
2023/10/09 19:49:37;;;;;;;26.48;9.15;;;;;;;;;;6094742;23;20173;-91
2023/10/09 19:52:44;;;;;;;26.13;10.75;;;;;;;;;;6094656;23;20257;-92
2023/10/09 19:55:50;;;;;;;32.00;12.30;;;;;;;;;;6094929;23;20185;-93
2023/10/09 19:58:57;;;;;;;25.20;12.32;;;;;;;;;;6094233;23;20186;-93
2023/10/09 20:02:03;;;;;;;24.90;11.52;;;;;;;;;;6096848;23;20174;-93